Sugar Bowl, California Weather observations

Data are for observation ending at time listed.
 Day   Time    Ave.   Ave.  Ave.  Vector   Max.   Stn.    Total    Solar   Ave.   Snow 
  of    of     Air    Rel.  Wind   Wind    Wind   Baro.  Precip.   Rad.    Soil   Depth
Year   Day     Temp.  Hum.  Speed  Dir.    Gust   Pres.                    Temp.       
2014   (PST)    F      %     mph   deg.    mph     mb.     in.     W/m2     F      in. 
---------------------------------------------------------------------------------------  
 262   16:30   67.9    31    3.8    94     14.5   788.8    0.00      86    999.0   -0.6
 262   16:40   67.9    31    3.8    88     11.5   788.8    0.00      75    999.0   -0.5
 262   16:50   67.8    31    4.2    80     15.9   788.8    0.00     142    999.0   -0.7
 262   17:00   67.2    32    4.1    86     13.2   788.8    0.00      95    999.0   -0.8
 262   17:10   66.7    32    3.2    78     15.3   788.8    0.00      69    999.0   -0.7
 262   17:20   66.0    33    1.7    61      8.6   788.9    0.00      38    999.0   -0.3
 262   17:30   65.6    33    1.5    57      5.0   788.9    0.00      23    999.0   -0.3
 262   17:40   65.4    34    2.1    64      8.3   788.9    0.00      13    999.0    0.7
 262   17:50   64.8    34    2.1    97     10.4   789.0    0.00       9    999.0   -0.2
 262   18:00   64.2    36    0.7   210      6.5   789.0    0.00       5    999.0   -0.2
 262   18:10   63.5    36    1.5    95      9.1   789.1    0.00       2    999.0    1.0
 262   18:20   63.2    36    2.2   159      8.2   789.0    0.00       1    999.0    0.1
 262   18:30   64.0    34    3.4   115     12.8   789.1    0.00       0    999.0    1.2
 262   18:40   64.1    34    4.1   103     15.2   789.2    0.00       0    999.0    1.4
 262   18:50   63.7    34    4.4    93     10.9   789.3    0.00       0    999.0    1.4
 262   19:00   63.2    34    2.1   119      8.4   789.3    0.00       0    999.0    0.4
 262   19:10   62.5    35    1.6   104      8.0   789.4    0.00       0    999.0    0.1
 262   19:20   62.5    35    3.5    84     10.3   789.5    0.00       0    999.0    1.0
 262   19:30   61.9    36    1.9   128      7.7   789.6    0.00       0    999.0    0.5
 262   19:40   60.5    38    0.3   287      3.1   789.7    0.00       0    999.0    0.7
 262   19:50   59.0    40    0.5   264      3.2   789.7    0.00       0    999.0    1.6
 262   20:00   57.7    43    0.5   251      4.3   789.8    0.00       0    999.0    1.4
 262   20:10   56.3    45    0.7   145      3.1   789.9    0.00       0    999.0    1.6
 262   20:20   55.5    46    0.4   113      2.9   789.9    0.00       0    999.0    2.3
 262   20:30   54.9    47    0.3    92      3.2   790.0    0.00       0    999.0    2.5
 262   20:40   54.5    48    0.3   174      2.0   790.0    0.00       0    999.0    2.3
 262   20:50   54.0    48    0.5   166      3.2   790.0    0.00       0    999.0    2.3
 262   21:00   54.0    48    0.7    86      3.7   790.1    0.00       0    999.0    2.9
 262   21:10   54.3    47    0.4   168      1.9   790.1    0.00       0    999.0    2.2
 262   21:20   56.4    44    2.4    92      9.6   790.2    0.00       0    999.0    2.8
 262   21:30   59.7    40    3.7    87     12.4   790.2    0.00       0    999.0    1.7
 262   21:40   60.8    39    4.2    85     13.4   790.2    0.00       0    999.0    1.8
 262   21:50   61.3    38    3.9    92     10.8   790.2    0.00       0    999.0    1.1
 262   22:00   61.0    39    2.7    86      8.5   790.2    0.00       0    999.0    1.2
 262   22:10   60.6    39    3.0    88      8.7   790.2    0.00       0    999.0    1.0
 262   22:20   61.1    38    4.6    83     18.0   790.2    0.00       0    999.0    1.1
 262   22:30   61.0    38    5.1    86     18.9   790.2    0.00       0    999.0    2.1
 262   22:40   61.2    38    6.9    90     20.5   790.2    0.00       0    999.0    1.0
 262   22:50   61.4    37    6.5    95     18.3   790.1    0.00       0    999.0    1.7
 262   23:00   61.4    37    5.3    95     13.8   790.1    0.00       0    999.0    1.0
 262   23:10   61.1    37    4.5    86     13.0   790.2    0.00       0    999.0    1.5
 262   23:20   60.7    38    3.8    91     11.7   790.2    0.00       0    999.0    0.8
 262   23:30   60.3    38    3.2    91     11.5   790.3    0.00       0    999.0    1.8
 262   23:40   59.6    40    1.1    96      3.7   790.2    0.00       0    999.0    1.5
 262   23:50   58.7    41    0.7   106      3.5   790.2    0.00       0    999.0    1.4
 263    0:00   58.0    42    0.6   106      4.7   790.2    0.00       0    999.0    1.3
 263    0:10   57.3    44    0.5   199      4.5   790.2    0.00       0    999.0    2.1
 263    0:20   57.1    44    0.9   120      4.7   790.3    0.00       0    999.0    1.5
 263    0:30   56.5    45    1.4   101      6.1   790.4    0.00       0    999.0    1.9
 263    0:40   58.7    41    2.6    88      7.6   790.4    0.00       0    999.0    1.9
 263    0:50   59.8    39    2.4   101     10.3   790.4    0.00       0    999.0    1.5
 263    1:00   58.5    41    0.8   105      5.0   790.4    0.00       0    999.0    1.9
 263    1:10   57.2    44    0.6   216      2.0   790.4    0.00       0    999.0    1.6
 263    1:20   56.9    44    1.0   223      3.4   790.4    0.00       0    999.0    1.5
 263    1:30   56.4    45    0.4    88      3.4   790.4    0.00       0    999.0    2.2
 263    1:40   54.9    48    0.6   206      4.9   790.4    0.00       0    999.0    2.9
 263    1:50   53.8    50    0.5   165      4.6   790.4    0.00       0    999.0    1.9
 263    2:00   52.9    52    0.6   197      2.6   790.4    0.00       0    999.0    2.2
 263    2:10   52.9    52    0.9   190      6.0   790.4    0.00       0    999.0    2.1
 263    2:20   52.5    52    0.5    90      2.5   790.4    0.00       0    999.0    1.5
 263    2:30   51.6    54    0.8   107      3.4   790.4    0.00       0    999.0    2.5
 263    2:40   51.5    54    0.4   138      3.3   790.4    0.00       0    999.0    2.0
 263    2:50   51.9    53    3.3    86     13.4   790.3    0.00       0    999.0    1.6
 263    3:00   55.4    46    8.2    91     16.8   790.1    0.00       0    999.0    1.6
 263    3:10   58.5    41    9.4    95     21.4   790.0    0.00       0    999.0    1.9
 263    3:20   59.2    39   10.2    95     29.4   789.9    0.00       0    999.0    1.8
 263    3:30   59.4    39    9.8    89     28.2   789.9    0.00       0    999.0    1.4
 263    3:40   59.0    39    9.0    90     23.9   789.9    0.00       0    999.0    1.4
 263    3:50   59.0    39   10.9    93     31.0   789.9    0.00       0    999.0    1.7
 263    4:00   59.3    38   11.6    92     26.5   790.0    0.00       0    999.0    1.6
 263    4:10   59.1    39   11.8    89     28.1   789.9    0.00       0    999.0    1.4
 263    4:20   59.2    38   10.7    90     25.5   789.9    0.00       0    999.0    1.6
 263    4:30   59.1    39   10.8    87     33.1   789.9    0.00       0    999.0    1.9
 263    4:40   59.1    39   10.0    86     33.0   790.0    0.00       0    999.0    2.3
 263    4:50   58.6    39    9.9    90     25.7   790.0    0.00       0    999.0    2.3
 263    5:00   58.4    40    9.2    87     32.0   790.0    0.00       0    999.0    1.2
 263    5:10   58.4    40   10.0    93     26.9   790.1    0.00       0    999.0    1.8
 263    5:20   58.5    39   11.4    91     30.3   790.1    0.00       0    999.0    3.0
 263    5:30   58.3    40    9.5    90     21.3   790.1    0.00       0    999.0    1.9
 263    5:40   58.3    40    9.7    89     25.8   790.2    0.00       1    999.0    3.4
 263    5:50   57.9    40    9.7    94     26.2   790.2    0.00       2    999.0    2.8
 263    6:00   57.7    41    9.8    90     26.7   790.3    0.00       4    999.0    2.5
 263    6:10   57.5    41   10.0    89     22.8   790.4    0.00       5    999.0    2.6
 263    6:20   57.5    41    9.8    89     25.9   790.4    0.00       9    999.0    1.8
 263    6:30   57.6    41    9.7    88     25.9   790.5    0.00      14    999.0    2.1
 263    6:40   57.6    41    9.7    89     25.9   790.5    0.00      27    999.0    2.0
 263    6:50   57.6    41   10.5    87     26.7   790.6    0.00      42    999.0    1.4
 263    7:00   58.1    40   10.8    87     28.0   790.6    0.00     116    999.0    1.8
 263    7:10   58.7    40   11.9    86     31.5   790.6    0.00      81    999.0    1.0
 263    7:20   59.0    39   11.2    87     30.2   790.6    0.00      75    999.0    1.3
 263    7:30   59.5    39   10.2    86     26.7   790.6    0.00      68    999.0    1.3
 263    7:40   59.8    39    8.6    86     20.8   790.6    0.00      70    999.0    1.0
 263    7:50   60.7    37    9.0    83     27.4   790.6    0.00      78    999.0    1.2
 263    8:00   61.4    36    8.7    84     20.5   790.6    0.00      84    999.0    1.3
 263    8:10   61.8    36    8.9    84     23.7   790.7    0.00      81    999.0    0.1
 263    8:20   62.2    36    6.3    78     22.9   790.8    0.00      82    999.0    0.3
 263    8:30   62.7    35    6.8    76     28.1   790.9    0.00      85    999.0    0.6
 263    8:40   62.5    36    7.3    82     24.3   791.0    0.00      87    999.0    0.8
 263    8:50   62.2    37    7.7    83     24.5   791.0    0.00      93    999.0    0.4
 263    9:00   62.9    36    7.4    82     26.7   791.0    0.00     114    999.0    0.6
 263    9:10   63.3    35    7.4    81     19.4   791.1    0.00     172    999.0    1.3
 263    9:20   63.7    35    9.4    88     25.1   791.1    0.00      92    999.0    0.1
 263    9:30   64.1    34   10.9    87     29.9   791.1    0.00      84    999.0    0.5
 263    9:40   65.0    34    7.6    81     20.5   791.1    0.00      78    999.0    0.1
 263    9:50   66.0    32    5.8    64     17.0   791.2    0.00      78    999.0    0.4
 263   10:00   66.8    32    3.3    56     13.8   791.1    0.00     103    999.0    0.0
 263   10:10   67.3    30    4.2    55     13.7   791.0    0.00     424    999.0    0.2
 263   10:20   68.1    30    4.8    78     18.5   791.0    0.00     735    999.0    0.5
 263   10:30   68.5    29    5.7    78     15.0   791.0    0.00     654    999.0    0.7
 263   10:40   68.7    28    4.0    84     25.0   791.0    0.00     572    999.0    1.1
 263   10:50   70.1    26    4.3    74     24.0   791.0    0.00     757    999.0    1.6
 263   11:00   70.6    25    5.0   108     15.9   791.0    0.00     616    999.0    1.3
 263   11:10   69.6    24    7.2   113     24.5   791.0    0.00     579    999.0    1.7
 263   11:20   69.8    24    5.0   123     24.2   790.8    0.00     554    999.0    1.0
 263   11:30   69.9    24    5.6   108     20.5   790.7    0.00     669    999.0    1.2
 263   11:40   70.3    24    4.4   104     16.1   790.6    0.00     797    999.0    1.6
 263   11:50   70.7    24    5.2   103     19.8   790.5    0.00     841    999.0    2.4
 263   12:00   71.1    24    4.9   116     14.0   790.5    0.00     718    999.0    1.8
 263   12:10   70.3    25    6.9    87     24.0   790.5    0.00     656    999.0    1.0
 263   12:20   71.0    24    6.5    94     29.2   790.4    0.00     810    999.0    0.8
 263   12:30   70.4    24    6.4   101     24.9   790.3    0.00     596    999.0    0.3
 263   12:40   70.9    24    7.8    95     25.1   790.3    0.00     241    999.0    1.6
 263   12:50   71.2    24    4.9   106     12.9   790.2    0.00     225    999.0    1.1
 263   13:00   70.7    24    6.0    94     19.3   790.2    0.00     489    999.0    1.3
 263   13:10   71.0    23    6.1    94     20.0   790.2    0.00     349    999.0    1.3
 263   13:20   71.3    23    5.4   115     14.0   790.1    0.00     231    999.0    1.3
 263   13:30   71.5    23    6.7   100     24.5   790.1    0.00     215    999.0    0.9
 263   13:40   71.0    24    4.3   104     16.2   790.1    0.00     215    999.0    0.9
 263   13:50   71.1    28    3.6   147     18.1   790.1    0.00     187    999.0    0.9
 263   14:00   70.6    30    2.9   210     11.0   790.0    0.00     178    999.0    0.3
 263   14:10   71.8    29    1.3   201      8.4   790.0    0.00     226    999.0    0.6
 263   14:20   71.0    31    2.6   209     11.2   790.0    0.00     181    999.0   -0.4
 263   14:30   69.2    32    4.8   189     16.1   789.9    0.00     244    999.0   -0.1
 263   14:40   69.3    33    3.9   198     12.4   789.9    0.00     432    999.0   -0.1
 263   14:50   69.0    33    2.8   214     18.8   790.0    0.00     311    999.0   -0.2
 263   15:00   68.5    34    2.8   191     12.5   789.9    0.00     237    999.0   -0.1
 263   15:10   68.4    34    3.8   194     13.3   789.9    0.00     299    999.0   -0.0
 263   15:20   68.0    35    4.1   188     17.4   790.0    0.00     307    999.0    0.1
 263   15:30   67.8    36    4.3   188     14.6   789.9    0.00     361    999.0   -0.3
 263   15:40   68.1    36    2.6   209     11.4   789.9    0.00     357    999.0    0.2
 263   15:50   68.2    36    2.1   255      6.9   789.8    0.00     161    999.0   -0.8
 263   16:00   67.2    38    3.2   207     10.1   789.8    0.00      95    999.0   -0.6
 263   16:10   65.8    40    3.3   195     11.3   789.7    0.00      67    999.0   -0.4
 263   16:20   65.6    41    0.9   190      7.8   789.6    0.00      59    999.0   -0.4

Return to Sugar Bowl graphs page.


Western Regional Climate Center,wrcc@dri.edu